Ballarat, Victoria

4:21 AM AEDT on November 24, 2014 (GMT +1100)
Delacombe | Change Station
CLOSE
Current Station
Personal Weather Station
Location: Ballarat, VICTORIA
Elevation: 1400 ft
Nearby Weather Stations

Elev 1400 ft 37.58 °S, 143.81 °E | Updated 1 minute ago

Clear
Clear
59.5 °F
Feels Like 59.5 °F
N
2.7
Wind Variable Wind from SSW
Gusts 2.7 mph

Today
High -- | Low -- °F
--% Chance of Precip.
Yesterday
High -- | Low -- °F
Precip. -- in
6:00 AM 8:23 PM
New Moon, 2% visible
Pressure 29.80 in
Visibility 6.2 miles
Clouds
Dew Point 31 °F
Humidity 34%
Rainfall 0.00 in
Snow Depth Not available.
UV Not available.
Pollen Not available.
Air Quality Not available.
Flu Activity Not available.
METAR YMAV 231700Z AUTO 25006KT 9999 // NCD 13/09 Q1009

More Conditions Fewer Conditions

Pressure 29.80 in
Visibility 6.2 miles
Clouds
Dew Point 31 °F
Humidity 34%
Rainfall 0.00 in
Snow Depth Not available.
UV Not available.
Pollen Not available.
Air Quality Not available.
Flu Activity Not available.
METAR YMAV 231700Z AUTO 25006KT 9999 // NCD 13/09 Q1009

More Conditions Fewer Conditions

10-Day Weather Forecast

Almanac

Astronomy

Nov. 24, 2014 Rise Set
Actual Time
Civil Twilight
Nautical Twilight
Astronomical Twilight
Moon
Length of Visible Light
Length of Day
Tomorrow will be .
, % of the Moon is Illuminated

Today's Extremes

Country Highs Country Lows

Community

WunderPhotos

Upload Photos

1,773,110 photos uploaded!

WunderBlogs® & News

Nearby

Air Quality

  Air Quality AQ Index Pollutant
Not available.

Snow Depth

Station Depth Elevation

Earthquake Activity

City Distance Mag. Time & Date
Minimum magnitude displayed is 2.5.

Coastal Water Temperatures

Place Temperature

Nearby Weather Stations